Aeroporto :
LOGIN :

Iscrizione | Disclaimer

   EN    FR    IT 

 










Sommario :    VFR   VFR Marginale   IFR   IFR Intensivo   IFR Molto Intensivo
Visibilità : 
Base nubi : 
>= 8 km
>= 3000ft
5 / 8 km
1000 / 3000 ft
1500m / 5 km
500 / 1000 ft
800 / 1500m
200 / 500 ft
< 800m
< 200 ft
Simboli :   Temporali  Nebbia  Neve Forte  Precipitazioni Forti  Vento > 20 kt
SIGMETs :   Varie  Temporali  Ghiacco  Turbolenza  Onda orograficha  Ceneri Vulcaniche






- Altitudine del aeroporto : 597 ft
- Codice IATA : PDV


LBPD - Plovdiv

ULTIMO METAR :
  • 240530Z AUTO 30005KT 9999 OVC018/// 12/12 Q1006 TEMPO 1500 BR BKN004

METARs OBSOLETI :
  • 240500Z AUTO 28005KT 5000 BR SCT013/// OVC015/// 12/12 Q1006 TEMPO 1500 BR BKN004
  • 240430Z AUTO 30004KT 4100 BR BKN005/// BKN007/// OVC012/// 11/11 Q1006 TEMPO 1500 BR BKN004
  • 240400Z AUTO VRB01KT 3100 BR BKN006/// BKN008/// OVC011/// 11/11 Q1006 TEMPO 1500 BR BKN004
  • 240330Z AUTO 13003KT 3700 BR SCT007/// OVC012/// 11/11 Q1005 TEMPO 0600 BCFG
  • 240300Z AUTO 11001KT 4300 BR BKN002/// OVC011/// 11/11 Q1005 TEMPO 0600 BCFG
  • 240230Z AUTO 10002KT 2400 BR OVC002/// 11/11 Q1005
  • 240130Z AUTO 13003KT 3700 BR OVC002/// 11/11 Q1005
  • 240100Z AUTO 14002KT 5000 BR OVC003/// 11/11 Q1005

TAF TAF LBPD
Valido dal 24 a 06 ore il 25 a 06 ore UTC


240500Z 2406/2506 VRB04KT 3000 BR BKN005 OVC010
BECMG 2408/2410 9999 BKN035
BECMG 2411/2412 10010KT
TEMPO 2412/2418 5000 TSRA FEW030CB BKN050
BECMG 2418/2419 VRB04KT
TEMPO 2422/2505 3000 BR BKN005



MetMap, La meteo Aeronautica in un colpo d'occhio ! - Copyright ORBIFLY Dicembre 2007 - Disclaimer

ORBIFLY MET'MAP TEAM :

Programmazione e sviluppo : Alexandra Zaïnal
Concezione : Baudouin d'Aumeries
Supporto tecnico e logistico : Manuel Goepfert
Aiuto : Marc-Olivier Méhu
Aiuto per la traduzione : Arnaldo La Scala




FONTI E CREDITI :

   NOAA